sensor_id;sensor_type;location;lat;lon;timestamp;pressure;altitude;pressure_sealevel;temperature;humidity
34584;BME280;53696;52.738;4.752;2023-04-27T00:02:19;102162.53;;;18.40;52.52
34584;BME280;53696;52.738;4.752;2023-04-27T00:04:48;102167.91;;;18.38;52.39
34584;BME280;53696;52.738;4.752;2023-04-27T00:07:17;102163.47;;;18.37;52.62
34584;BME280;53696;52.738;4.752;2023-04-27T00:09:45;102159.97;;;18.34;52.61
34584;BME280;53696;52.738;4.752;2023-04-27T00:12:14;102171.59;;;18.32;52.34
34584;BME280;53696;52.738;4.752;2023-04-27T00:14:42;102177.91;;;18.30;52.71
34584;BME280;53696;52.738;4.752;2023-04-27T00:17:09;102168.97;;;18.29;52.59
34584;BME280;53696;52.738;4.752;2023-04-27T00:19:37;102160.09;;;18.26;52.61
34584;BME280;53696;52.738;4.752;2023-04-27T00:22:09;102165.50;;;18.24;52.56
34584;BME280;53696;52.738;4.752;2023-04-27T00:24:37;102170.84;;;18.23;52.91
34584;BME280;53696;52.738;4.752;2023-04-27T00:27:07;102162.81;;;18.23;52.31
34584;BME280;53696;52.738;4.752;2023-04-27T00:29:35;102158.44;;;18.19;52.37
34584;BME280;53696;52.738;4.752;2023-04-27T00:32:03;102159.34;;;18.18;52.75
34584;BME280;53696;52.738;4.752;2023-04-27T00:34:31;102150.44;;;18.15;52.34
34584;BME280;53696;52.738;4.752;2023-04-27T00:36:59;102154.06;;;18.14;52.63
34584;BME280;53696;52.738;4.752;2023-04-27T00:39:28;102151.44;;;18.11;52.37
34584;BME280;53696;52.738;4.752;2023-04-27T00:41:55;102153.28;;;18.08;52.56
34584;BME280;53696;52.738;4.752;2023-04-27T00:44:23;102148.81;;;18.07;52.37
34584;BME280;53696;52.738;4.752;2023-04-27T00:46:52;102151.53;;;18.05;52.64
34584;BME280;53696;52.738;4.752;2023-04-27T00:49:20;102145.31;;;18.03;52.77
34584;BME280;53696;52.738;4.752;2023-04-27T00:51:49;102142.69;;;18.02;52.63
34584;BME280;53696;52.738;4.752;2023-04-27T00:54:19;102144.53;;;17.98;52.30
34584;BME280;53696;52.738;4.752;2023-04-27T00:56:49;102150.78;;;17.97;52.75
34584;BME280;53696;52.738;4.752;2023-04-27T00:59:18;102147.25;;;17.95;52.42
34584;BME280;53696;52.738;4.752;2023-04-27T01:01:46;102146.38;;;17.93;52.48
34584;BME280;53696;52.738;4.752;2023-04-27T01:04:15;102156.22;;;17.92;52.53
34584;BME280;53696;52.738;4.752;2023-04-27T01:06:43;102147.28;;;17.92;52.68
34584;BME280;53696;52.738;4.752;2023-04-27T01:09:11;102141.97;;;17.90;52.43
34584;BME280;53696;52.738;4.752;2023-04-27T01:11:39;102148.22;;;17.91;52.47
34584;BME280;53696;52.738;4.752;2023-04-27T01:14:09;102149.13;;;17.90;52.62
34584;BME280;53696;52.738;4.752;2023-04-27T01:16:37;102146.47;;;17.87;52.71
34584;BME280;53696;52.738;4.752;2023-04-27T01:19:06;102139.34;;;17.85;52.66
34584;BME280;53696;52.738;4.752;2023-04-27T01:21:34;102145.66;;;17.83;52.40
34584;BME280;53696;52.738;4.752;2023-04-27T01:24:05;102136.78;;;17.79;52.87
34584;BME280;53696;52.738;4.752;2023-04-27T01:26:33;102135.91;;;17.79;52.82
34584;BME280;53696;52.738;4.752;2023-04-27T01:29:01;102141.28;;;17.79;52.51
34584;BME280;53696;52.738;4.752;2023-04-27T01:31:29;102136.88;;;17.76;52.50
34584;BME280;53696;52.738;4.752;2023-04-27T01:33:56;102130.59;;;17.76;52.87
34584;BME280;53696;52.738;4.752;2023-04-27T01:36:24;102127.91;;;17.77;52.45
34584;BME280;53696;52.738;4.752;2023-04-27T01:38:53;102124.38;;;17.74;52.47
34584;BME280;53696;52.738;4.752;2023-04-27T01:41:23;102118.16;;;17.73;52.73
34584;BME280;53696;52.738;4.752;2023-04-27T01:43:51;102111.94;;;17.71;52.56
34584;BME280;53696;52.738;4.752;2023-04-27T01:46:19;102113.75;;;17.69;52.46
34584;BME280;53696;52.738;4.752;2023-04-27T01:48:47;102111.13;;;17.67;52.60
34584;BME280;53696;52.738;4.752;2023-04-27T01:51:14;102115.63;;;17.64;52.55
34584;BME280;53696;52.738;4.752;2023-04-27T01:53:42;102115.63;;;17.64;52.66
34584;BME280;53696;52.738;4.752;2023-04-27T01:56:10;102104.06;;;17.63;52.91
34584;BME280;53696;52.738;4.752;2023-04-27T01:58:39;102112.09;;;17.62;52.54
34584;BME280;53696;52.738;4.752;2023-04-27T02:01:07;102112.09;;;17.62;52.36
34584;BME280;53696;52.738;4.752;2023-04-27T02:03:35;102104.09;;;17.60;52.66
34584;BME280;53696;52.738;4.752;2023-04-27T02:06:03;102110.34;;;17.61;52.68
34584;BME280;53696;52.738;4.752;2023-04-27T02:08:32;102113.94;;;17.60;52.56
34584;BME280;53696;52.738;4.752;2023-04-27T02:11:00;102120.22;;;17.57;52.66
34584;BME280;53696;52.738;4.752;2023-04-27T02:13:28;102118.44;;;17.56;52.88
34584;BME280;53696;52.738;4.752;2023-04-27T02:15:57;102107.75;;;17.56;52.91
34584;BME280;53696;52.738;4.752;2023-04-27T02:18:27;102107.75;;;17.55;52.51
34584;BME280;53696;52.738;4.752;2023-04-27T02:20:55;102109.56;;;17.54;52.83
34584;BME280;53696;52.738;4.752;2023-04-27T02:23:23;102103.31;;;17.53;52.81
34584;BME280;53696;52.738;4.752;2023-04-27T02:25:51;102113.13;;;17.51;52.49
34584;BME280;53696;52.738;4.752;2023-04-27T02:28:19;102110.47;;;17.50;52.74
34584;BME280;53696;52.738;4.752;2023-04-27T02:30:47;102108.69;;;17.50;52.80
34584;BME280;53696;52.738;4.752;2023-04-27T02:33:17;102098.03;;;17.49;52.37
34584;BME280;53696;52.738;4.752;2023-04-27T02:35:44;102108.72;;;17.47;52.41
34584;BME280;53696;52.738;4.752;2023-04-27T02:38:12;102101.59;;;17.46;52.28
34584;BME280;53696;52.738;4.752;2023-04-27T02:40:41;102106.94;;;17.46;52.43
34584;BME280;53696;52.738;4.752;2023-04-27T02:43:09;102094.50;;;17.45;52.59
34584;BME280;53696;52.738;4.752;2023-04-27T02:45:37;102107.88;;;17.44;52.41
34584;BME280;53696;52.738;4.752;2023-04-27T02:48:06;102107.00;;;17.43;52.58
34584;BME280;53696;52.738;4.752;2023-04-27T02:50:40;102108.81;;;17.41;52.61
34584;BME280;53696;52.738;4.752;2023-04-27T02:53:08;102106.19;;;17.40;52.83
34584;BME280;53696;52.738;4.752;2023-04-27T02:55:36;102107.94;;;17.39;52.42
34584;BME280;53696;52.738;4.752;2023-04-27T02:58:04;102108.00;;;17.36;52.46
34584;BME280;53696;52.738;4.752;2023-04-27T03:00:32;102105.34;;;17.36;52.83
34584;BME280;53696;52.738;4.752;2023-04-27T03:03:00;102101.78;;;17.34;52.63
34584;BME280;53696;52.738;4.752;2023-04-27T03:05:28;102109.81;;;17.34;52.81
34584;BME280;53696;52.738;4.752;2023-04-27T03:07:58;102106.28;;;17.33;52.36
34584;BME280;53696;52.738;4.752;2023-04-27T03:10:27;102107.19;;;17.32;52.28
34584;BME280;53696;52.738;4.752;2023-04-27T03:12:55;102108.03;;;17.33;52.30
34584;BME280;53696;52.738;4.752;2023-04-27T03:15:22;102101.81;;;17.31;52.51
34584;BME280;53696;52.738;4.752;2023-04-27T03:17:50;102114.31;;;17.30;52.46
34584;BME280;53696;52.738;4.752;2023-04-27T03:20:20;102115.22;;;17.29;52.83
34584;BME280;53696;52.738;4.752;2023-04-27T03:22:48;102103.66;;;17.29;52.43
34584;BME280;53696;52.738;4.752;2023-04-27T03:25:17;102107.25;;;17.28;52.72
34584;BME280;53696;52.738;4.752;2023-04-27T03:27:45;102101.00;;;17.27;52.64
34584;BME280;53696;52.738;4.752;2023-04-27T03:30:13;102092.13;;;17.25;52.38
34584;BME280;53696;52.738;4.752;2023-04-27T03:32:41;102099.25;;;17.25;52.61
34584;BME280;53696;52.738;4.752;2023-04-27T03:35:13;102100.16;;;17.24;52.48
34584;BME280;53696;52.738;4.752;2023-04-27T03:37:41;102093.97;;;17.21;52.32
34584;BME280;53696;52.738;4.752;2023-04-27T03:40:12;102102.00;;;17.21;52.74
34584;BME280;53696;52.738;4.752;2023-04-27T03:42:42;102095.75;;;17.21;52.42
34584;BME280;53696;52.738;4.752;2023-04-27T03:45:10;102093.97;;;17.20;52.31
34584;BME280;53696;52.738;4.752;2023-04-27T03:47:38;102101.16;;;17.18;52.83
34584;BME280;53696;52.738;4.752;2023-04-27T03:50:06;102107.38;;;17.18;52.62
34584;BME280;53696;52.738;4.752;2023-04-27T03:52:34;102102.06;;;17.17;52.86
34584;BME280;53696;52.738;4.752;2023-04-27T03:55:03;102102.06;;;17.15;52.52
34584;BME280;53696;52.738;4.752;2023-04-27T03:57:31;102102.06;;;17.15;52.80
34584;BME280;53696;52.738;4.752;2023-04-27T04:00:00;102103.88;;;17.13;52.89
34584;BME280;53696;52.738;4.752;2023-04-27T04:02:30;102101.22;;;17.12;52.36
34584;BME280;53696;52.738;4.752;2023-04-27T04:04:58;102108.38;;;17.11;52.90
34584;BME280;53696;52.738;4.752;2023-04-27T04:07:27;102111.03;;;17.11;52.55
34584;BME280;53696;52.738;4.752;2023-04-27T04:09:54;102103.91;;;17.10;52.88
34584;BME280;53696;52.738;4.752;2023-04-27T04:12:22;102107.50;;;17.09;52.74
34584;BME280;53696;52.738;4.752;2023-04-27T04:14:50;102111.97;;;17.09;52.42
34584;BME280;53696;52.738;4.752;2023-04-27T04:17:19;102109.28;;;17.09;52.31
34584;BME280;53696;52.738;4.752;2023-04-27T04:19:47;102120.84;;;17.09;52.46
34584;BME280;53696;52.738;4.752;2023-04-27T04:22:15;102117.34;;;17.05;52.73
34584;BME280;53696;52.738;4.752;2023-04-27T04:24:43;102120.91;;;17.06;52.42
34584;BME280;53696;52.738;4.752;2023-04-27T04:27:11;102121.81;;;17.05;52.35
34584;BME280;53696;52.738;4.752;2023-04-27T04:29:39;102124.53;;;17.03;52.84
34584;BME280;53696;52.738;4.752;2023-04-27T04:32:07;102130.75;;;17.04;52.46
34584;BME280;53696;52.738;4.752;2023-04-27T04:34:36;102120.94;;;17.03;52.44
34584;BME280;53696;52.738;4.752;2023-04-27T04:37:04;102128.09;;;17.02;52.64
34584;BME280;53696;52.738;4.752;2023-04-27T04:39:32;102129.91;;;17.00;52.61
34584;BME280;53696;52.738;4.752;2023-04-27T04:42:00;102133.47;;;16.99;52.45
34584;BME280;53696;52.738;4.752;2023-04-27T04:44:29;102141.47;;;17.01;52.37
34584;BME280;53696;52.738;4.752;2023-04-27T04:46:57;102136.13;;;17.01;52.38
34584;BME280;53696;52.738;4.752;2023-04-27T04:49:25;102136.16;;;16.98;52.72
34584;BME280;53696;52.738;4.752;2023-04-27T04:51:54;102135.28;;;16.97;52.72
34584;BME280;53696;52.738;4.752;2023-04-27T04:54:22;102137.09;;;16.95;52.79
34584;BME280;53696;52.738;4.752;2023-04-27T04:56:50;102137.97;;;16.96;52.59
34584;BME280;53696;52.738;4.752;2023-04-27T04:59:18;102137.09;;;16.94;52.49
34584;BME280;53696;52.738;4.752;2023-04-27T05:01:46;102132.66;;;16.94;52.35
34584;BME280;53696;52.738;4.752;2023-04-27T05:04:14;102128.22;;;16.93;52.94
34584;BME280;53696;52.738;4.752;2023-04-27T05:06:44;102141.59;;;16.92;52.36
34584;BME280;53696;52.738;4.752;2023-04-27T05:09:14;102132.66;;;16.93;52.57
34584;BME280;53696;52.738;4.752;2023-04-27T05:11:41;102132.66;;;16.93;52.69
34584;BME280;53696;52.738;4.752;2023-04-27T05:14:09;102130.88;;;16.93;52.73
34584;BME280;53696;52.738;4.752;2023-04-27T05:16:37;102130.91;;;16.92;52.31
34584;BME280;53696;52.738;4.752;2023-04-27T05:19:05;102133.56;;;16.93;52.86
34584;BME280;53696;52.738;4.752;2023-04-27T05:21:33;102130.00;;;16.91;52.86
34584;BME280;53696;52.738;4.752;2023-04-27T05:24:01;102141.59;;;16.92;52.56
34584;BME280;53696;52.738;4.752;2023-04-27T05:26:33;102141.59;;;16.92;52.37
34584;BME280;53696;52.738;4.752;2023-04-27T05:29:01;102137.16;;;16.90;52.43
34584;BME280;53696;52.738;4.752;2023-04-27T05:31:29;102140.69;;;16.94;52.84
34584;BME280;53696;52.738;4.752;2023-04-27T05:33:57;102141.53;;;16.95;52.46
34584;BME280;53696;52.738;4.752;2023-04-27T05:36:25;102142.41;;;16.97;52.35
34584;BME280;53696;52.738;4.752;2023-04-27T05:38:54;102149.47;;;17.01;52.43
34584;BME280;53696;52.738;4.752;2023-04-27T05:41:22;102149.44;;;17.04;52.25
34584;BME280;53696;52.738;4.752;2023-04-27T05:43:51;102149.44;;;17.07;52.66
34584;BME280;53696;52.738;4.752;2023-04-27T05:46:19;102147.59;;;17.09;52.31
34584;BME280;53696;52.738;4.752;2023-04-27T05:48:47;102148.44;;;17.13;52.73
34584;BME280;53696;52.738;4.752;2023-04-27T05:51:16;102144.81;;;17.15;52.19
34584;BME280;53696;52.738;4.752;2023-04-27T05:53:44;102142.13;;;17.18;52.32
34584;BME280;53696;52.738;4.752;2023-04-27T05:56:12;102148.34;;;17.20;52.48
34584;BME280;53696;52.738;4.752;2023-04-27T05:58:40;102144.72;;;17.25;52.20
34584;BME280;53696;52.738;4.752;2023-04-27T06:01:09;102143.78;;;17.27;52.02
34584;BME280;53696;52.738;4.752;2023-04-27T06:03:38;102143.75;;;17.30;52.22
34584;BME280;53696;52.738;4.752;2023-04-27T06:06:06;102147.25;;;17.34;52.09
34584;BME280;53696;52.738;4.752;2023-04-27T06:08:34;102145.44;;;17.37;51.85
34584;BME280;53696;52.738;4.752;2023-04-27T06:11:03;102148.06;;;17.39;52.10
34584;BME280;53696;52.738;4.752;2023-04-27T06:13:32;102149.84;;;17.40;52.04
34584;BME280;53696;52.738;4.752;2023-04-27T06:16:00;102156.09;;;17.41;52.03
34584;BME280;53696;52.738;4.752;2023-04-27T06:18:30;102156.97;;;17.41;52.25
34584;BME280;53696;52.738;4.752;2023-04-27T06:20:58;102156.97;;;17.41;52.24
34584;BME280;53696;52.738;4.752;2023-04-27T06:23:28;102150.72;;;17.42;52.34
34584;BME280;53696;52.738;4.752;2023-04-27T06:25:55;102164.09;;;17.42;51.96
34584;BME280;53696;52.738;4.752;2023-04-27T06:28:24;102156.97;;;17.41;52.06
34584;BME280;53696;52.738;4.752;2023-04-27T06:30:52;102164.09;;;17.42;51.92
34584;BME280;53696;52.738;4.752;2023-04-27T06:33:20;102159.59;;;17.43;51.95
34584;BME280;53696;52.738;4.752;2023-04-27T06:35:49;102151.59;;;17.44;52.27
34584;BME280;53696;52.738;4.752;2023-04-27T06:38:17;102156.00;;;17.47;52.33
34584;BME280;53696;52.738;4.752;2023-04-27T06:40:49;102161.31;;;17.48;52.45
34584;BME280;53696;52.738;4.752;2023-04-27T06:43:17;102163.13;;;17.48;52.25
34584;BME280;53696;52.738;4.752;2023-04-27T06:45:45;102155.09;;;17.48;52.24
34584;BME280;53696;52.738;4.752;2023-04-27T06:48:13;102150.59;;;17.51;52.46
34584;BME280;53696;52.738;4.752;2023-04-27T06:50:41;102152.34;;;17.54;52.75
34584;BME280;53696;52.738;4.752;2023-04-27T06:53:10;102154.09;;;17.57;52.41
34584;BME280;53696;52.738;4.752;2023-04-27T06:55:39;102138.94;;;17.57;52.45
34584;BME280;53696;52.738;4.752;2023-04-27T06:58:11;102152.28;;;17.59;52.94
34584;BME280;53696;52.738;4.752;2023-04-27T07:00:39;102146.03;;;17.60;52.91
34584;BME280;53696;52.738;4.752;2023-04-27T07:03:07;102150.47;;;17.61;52.53
34584;BME280;53696;52.738;4.752;2023-04-27T07:05:35;102155.81;;;17.62;52.61
34584;BME280;53696;52.738;4.752;2023-04-27T07:08:03;102152.19;;;17.65;52.87
34584;BME280;53696;52.738;4.752;2023-04-27T07:10:36;102157.50;;;17.66;52.69
34584;BME280;53696;52.738;4.752;2023-04-27T07:13:04;102159.28;;;17.67;52.64
34584;BME280;53696;52.738;4.752;2023-04-27T07:15:34;102163.72;;;17.68;52.82
34584;BME280;53696;52.738;4.752;2023-04-27T07:18:02;102153.03;;;17.68;52.50
34584;BME280;53696;52.738;4.752;2023-04-27T07:20:31;102164.59;;;17.69;52.51
34584;BME280;53696;52.738;4.752;2023-04-27T07:22:58;102149.47;;;17.68;52.78
34584;BME280;53696;52.738;4.752;2023-04-27T07:25:26;102159.25;;;17.69;52.48
34584;BME280;53696;52.738;4.752;2023-04-27T07:27:56;102163.69;;;17.70;52.57
34584;BME280;53696;52.738;4.752;2023-04-27T07:30:25;102163.69;;;17.70;52.83
34584;BME280;53696;52.738;4.752;2023-04-27T07:32:56;102171.72;;;17.72;52.83
34584;BME280;53696;52.738;4.752;2023-04-27T07:35:24;102169.03;;;17.72;52.50
34584;BME280;53696;52.738;4.752;2023-04-27T07:37:52;102169.00;;;17.73;52.80
34584;BME280;53696;52.738;4.752;2023-04-27T07:40:20;102174.38;;;17.73;52.49
34584;BME280;53696;52.738;4.752;2023-04-27T07:42:49;102160.97;;;17.73;52.55
34584;BME280;53696;52.738;4.752;2023-04-27T07:45:19;102160.97;;;17.73;52.46
34584;BME280;53696;52.738;4.752;2023-04-27T07:47:47;102169.88;;;17.74;52.77
34584;BME280;53696;52.738;4.752;2023-04-27T07:50:15;102165.44;;;17.74;52.99
34584;BME280;53696;52.738;4.752;2023-04-27T07:52:49;102161.84;;;17.75;52.99
34584;BME280;53696;52.738;4.752;2023-04-27T07:55:17;102160.94;;;17.76;52.89
34584;BME280;53696;52.738;4.752;2023-04-27T07:57:45;102158.28;;;17.76;52.69
34584;BME280;53696;52.738;4.752;2023-04-27T08:00:13;102160.00;;;17.77;52.72
34584;BME280;53696;52.738;4.752;2023-04-27T08:02:42;102162.69;;;17.77;52.80
34584;BME280;53696;52.738;4.752;2023-04-27T08:05:11;102158.25;;;17.78;52.96
34584;BME280;53696;52.738;4.752;2023-04-27T08:07:39;102156.44;;;17.78;52.84
34584;BME280;53696;52.738;4.752;2023-04-27T08:10:10;102160.88;;;17.79;53.08
34584;BME280;53696;52.738;4.752;2023-04-27T08:12:38;102160.88;;;17.79;52.71
34584;BME280;53696;52.738;4.752;2023-04-27T08:15:08;102156.41;;;17.81;52.72
34584;BME280;53696;52.738;4.752;2023-04-27T08:17:37;102163.53;;;17.82;52.93
34584;BME280;53696;52.738;4.752;2023-04-27T08:20:09;102158.13;;;17.84;53.05
34584;BME280;53696;52.738;4.752;2023-04-27T08:22:38;102156.31;;;17.84;53.23
34584;BME280;53696;52.738;4.752;2023-04-27T08:25:06;102155.41;;;17.85;53.18
34584;BME280;53696;52.738;4.752;2023-04-27T08:27:36;102158.09;;;17.87;53.30
34584;BME280;53696;52.738;4.752;2023-04-27T08:30:05;102158.97;;;17.88;53.24
34584;BME280;53696;52.738;4.752;2023-04-27T08:32:34;102154.47;;;17.90;53.40
34584;BME280;53696;52.738;4.752;2023-04-27T08:35:02;102156.25;;;17.91;53.12
34584;BME280;53696;52.738;4.752;2023-04-27T08:37:31;102153.53;;;17.92;53.04
34584;BME280;53696;52.738;4.752;2023-04-27T08:39:59;102154.41;;;17.93;53.00
34584;BME280;53696;52.738;4.752;2023-04-27T08:42:27;102158.00;;;17.92;53.46
34584;BME280;53696;52.738;4.752;2023-04-27T08:44:56;102161.53;;;17.94;53.24
34584;BME280;53696;52.738;4.752;2023-04-27T08:47:23;102153.50;;;17.95;53.60
34584;BME280;53696;52.738;4.752;2023-04-27T08:50:09;102164.22;;;17.95;53.62
34584;BME280;53696;52.738;4.752;2023-04-27T08:52:39;102159.69;;;17.99;53.99
34584;BME280;53696;52.738;4.752;2023-04-27T08:55:08;102157.84;;;18.03;54.14
34584;BME280;53696;52.738;4.752;2023-04-27T08:57:36;102149.72;;;18.06;54.46
34584;BME280;53696;52.738;4.752;2023-04-27T09:00:05;102154.16;;;18.08;54.35
34584;BME280;53696;52.738;4.752;2023-04-27T09:02:45;102158.59;;;18.11;54.44
34584;BME280;53696;52.738;4.752;2023-04-27T09:05:17;102155.88;;;18.12;54.69
34584;BME280;53696;52.738;4.752;2023-04-27T09:07:57;102157.66;;;18.13;54.58
34584;BME280;53696;52.738;4.752;2023-04-27T09:10:26;102153.16;;;18.14;54.59
34584;BME280;53696;52.738;4.752;2023-04-27T09:12:57;102147.78;;;18.15;54.59
34584;BME280;53696;52.738;4.752;2023-04-27T09:15:26;102143.28;;;18.18;54.54
34584;BME280;53696;52.738;4.752;2023-04-27T09:17:54;102146.81;;;18.20;54.70
34584;BME280;53696;52.738;4.752;2023-04-27T09:20:23;102143.22;;;18.21;54.62
34584;BME280;53696;52.738;4.752;2023-04-27T09:22:53;102139.66;;;18.22;54.66
34584;BME280;53696;52.738;4.752;2023-04-27T09:25:28;102138.75;;;18.21;54.81
34584;BME280;53696;52.738;4.752;2023-04-27T09:27:57;102143.16;;;18.24;54.59
34584;BME280;53696;52.738;4.752;2023-04-27T09:30:27;102136.09;;;18.20;54.98
34584;BME280;53696;52.738;4.752;2023-04-27T09:32:58;102132.53;;;18.19;55.01
34584;BME280;53696;52.738;4.752;2023-04-27T09:35:29;102133.41;;;18.21;54.84
34584;BME280;53696;52.738;4.752;2023-04-27T09:37:58;102136.03;;;18.23;54.99
34584;BME280;53696;52.738;4.752;2023-04-27T09:40:28;102136.91;;;18.25;55.21
34584;BME280;53696;52.738;4.752;2023-04-27T09:42:58;102136.00;;;18.26;54.94
34584;BME280;53696;52.738;4.752;2023-04-27T09:45:27;102138.72;;;18.24;54.93
34584;BME280;53696;52.738;4.752;2023-04-27T09:47:56;102141.44;;;18.21;54.73
34584;BME280;53696;52.738;4.752;2023-04-27T09:50:24;102132.59;;;18.16;53.93
34584;BME280;53696;52.738;4.752;2023-04-27T09:52:53;102138.91;;;18.12;53.53
34584;BME280;53696;52.738;4.752;2023-04-27T09:55:26;102139.94;;;18.05;53.00
34584;BME280;53696;52.738;4.752;2023-04-27T09:58:30;102131.19;;;17.95;52.58
34584;BME280;53696;52.738;4.752;2023-04-27T10:01:08;102131.22;;;17.92;51.40
34584;BME280;53696;52.738;4.752;2023-04-27T10:03:47;102141.94;;;17.92;51.65
34584;BME280;53696;52.738;4.752;2023-04-27T10:06:50;102148.22;;;17.89;51.62
34584;BME280;53696;52.738;4.752;2023-04-27T10:09:23;102141.13;;;17.87;50.77
34584;BME280;53696;52.738;4.752;2023-04-27T10:11:52;102133.13;;;17.85;50.11
34584;BME280;53696;52.738;4.752;2023-04-27T10:14:23;102138.53;;;17.83;50.74
34584;BME280;53696;52.738;4.752;2023-04-27T10:16:51;102134.97;;;17.81;50.49
34584;BME280;53696;52.738;4.752;2023-04-27T10:19:20;102143.00;;;17.81;50.23
34584;BME280;53696;52.738;4.752;2023-04-27T10:21:56;102145.69;;;17.81;50.20
34584;BME280;53696;52.738;4.752;2023-04-27T10:24:35;102145.72;;;17.78;49.77
34584;BME280;53696;52.738;4.752;2023-04-27T10:27:05;102138.63;;;17.76;49.62
34584;BME280;53696;52.738;4.752;2023-04-27T10:29:40;102143.09;;;17.77;50.01
34584;BME280;53696;52.738;4.752;2023-04-27T10:32:09;102147.56;;;17.76;49.91
34584;BME280;53696;52.738;4.752;2023-04-27T10:34:38;102143.09;;;17.77;50.04
34584;BME280;53696;52.738;4.752;2023-04-27T10:37:08;102142.22;;;17.76;50.33
34584;BME280;53696;52.738;4.752;2023-04-27T10:39:37;102135.97;;;17.76;50.54
34584;BME280;53696;52.738;4.752;2023-04-27T10:42:25;102143.13;;;17.75;50.35
34584;BME280;53696;52.738;4.752;2023-04-27T10:44:56;102127.06;;;17.74;50.23
34584;BME280;53696;52.738;4.752;2023-04-27T10:47:35;102128.84;;;17.75;50.87
34584;BME280;53696;52.738;4.752;2023-04-27T10:50:05;102124.38;;;17.74;50.54
34584;BME280;53696;52.738;4.752;2023-04-27T10:52:34;102126.19;;;17.73;50.58
34584;BME280;53696;52.738;4.752;2023-04-27T10:55:20;102126.19;;;17.73;50.64
34584;BME280;53696;52.738;4.752;2023-04-27T10:57:50;102119.06;;;17.72;50.98
34584;BME280;53696;52.738;4.752;2023-04-27T11:00:25;102114.63;;;17.71;51.12
34584;BME280;53696;52.738;4.752;2023-04-27T11:02:54;102112.84;;;17.72;51.06
34584;BME280;53696;52.738;4.752;2023-04-27T11:05:24;102126.22;;;17.72;50.98
34584;BME280;53696;52.738;4.752;2023-04-27T11:08:03;102111.94;;;17.71;50.95
34584;BME280;53696;52.738;4.752;2023-04-27T11:10:32;102117.28;;;17.71;51.45
34584;BME280;53696;52.738;4.752;2023-04-27T11:13:06;102119.97;;;17.71;51.06
34584;BME280;53696;52.738;4.752;2023-04-27T11:15:44;102109.28;;;17.71;51.45
34584;BME280;53696;52.738;4.752;2023-04-27T11:18:12;102106.63;;;17.69;51.46
34584;BME280;53696;52.738;4.752;2023-04-27T11:20:42;102110.16;;;17.70;51.22
34584;BME280;53696;52.738;4.752;2023-04-27T11:23:21;102105.69;;;17.72;51.47
34584;BME280;53696;52.738;4.752;2023-04-27T11:25:50;102093.22;;;17.71;51.33
34584;BME280;53696;52.738;4.752;2023-04-27T11:28:19;102105.72;;;17.71;51.48
34584;BME280;53696;52.738;4.752;2023-04-27T11:30:56;102103.91;;;17.71;51.83
34584;BME280;53696;52.738;4.752;2023-04-27T11:33:24;102106.56;;;17.73;51.40
34584;BME280;53696;52.738;4.752;2023-04-27T11:35:52;102109.22;;;17.73;51.56
34584;BME280;53696;52.738;4.752;2023-04-27T11:38:22;102101.22;;;17.73;51.80
34584;BME280;53696;52.738;4.752;2023-04-27T11:40:58;102099.44;;;17.73;51.58
34584;BME280;53696;52.738;4.752;2023-04-27T11:43:27;102098.53;;;17.73;51.67
34584;BME280;53696;52.738;4.752;2023-04-27T11:45:57;102100.34;;;17.72;51.88
34584;BME280;53696;52.738;4.752;2023-04-27T11:48:26;102092.31;;;17.72;51.93
34584;BME280;53696;52.738;4.752;2023-04-27T11:50:57;102099.44;;;17.73;52.16
34584;BME280;53696;52.738;4.752;2023-04-27T11:53:31;102100.31;;;17.74;51.97
34584;BME280;53696;52.738;4.752;2023-04-27T11:56:00;102088.72;;;17.73;52.30
34584;BME280;53696;52.738;4.752;2023-04-27T11:58:28;102093.19;;;17.74;52.20
34584;BME280;53696;52.738;4.752;2023-04-27T12:00:58;102086.06;;;17.73;52.34
34584;BME280;53696;52.738;4.752;2023-04-27T12:03:27;102074.44;;;17.74;52.17
34584;BME280;53696;52.738;4.752;2023-04-27T12:05:56;102086.91;;;17.74;52.47
34584;BME280;53696;52.738;4.752;2023-04-27T12:08:42;102074.44;;;17.74;52.26
34584;BME280;53696;52.738;4.752;2023-04-27T12:11:09;102074.44;;;17.74;52.17
34584;BME280;53696;52.738;4.752;2023-04-27T12:13:38;102086.00;;;17.75;52.59
34584;BME280;53696;52.738;4.752;2023-04-27T12:16:07;102084.25;;;17.75;52.76
34584;BME280;53696;52.738;4.752;2023-04-27T12:18:35;102077.97;;;17.76;52.48
34584;BME280;53696;52.738;4.752;2023-04-27T12:21:04;102068.19;;;17.75;52.39
34584;BME280;53696;52.738;4.752;2023-04-27T12:23:34;102071.72;;;17.76;52.44
34584;BME280;53696;52.738;4.752;2023-04-27T12:26:02;102070.88;;;17.75;52.45
34584;BME280;53696;52.738;4.752;2023-04-27T12:28:31;102070.88;;;17.75;52.65
34584;BME280;53696;52.738;4.752;2023-04-27T12:31:00;102065.50;;;17.75;52.72
34584;BME280;53696;52.738;4.752;2023-04-27T12:33:30;102067.28;;;17.75;52.58
34584;BME280;53696;52.738;4.752;2023-04-27T12:35:58;102069.06;;;17.76;52.58
34584;BME280;53696;52.738;4.752;2023-04-27T12:38:26;102069.97;;;17.76;53.02
34584;BME280;53696;52.738;4.752;2023-04-27T12:40:54;102068.13;;;17.78;52.63
34584;BME280;53696;52.738;4.752;2023-04-27T12:43:23;102068.16;;;17.77;52.72
34584;BME280;53696;52.738;4.752;2023-04-27T12:45:50;102064.56;;;17.78;52.62
34584;BME280;53696;52.738;4.752;2023-04-27T12:48:18;102061.00;;;17.77;52.67
34584;BME280;53696;52.738;4.752;2023-04-27T12:50:49;102064.56;;;17.78;52.84
34584;BME280;53696;52.738;4.752;2023-04-27T12:53:17;102061.88;;;17.78;52.63
34584;BME280;53696;52.738;4.752;2023-04-27T12:55:47;102057.44;;;17.77;52.64
34584;BME280;53696;52.738;4.752;2023-04-27T12:58:14;102052.09;;;17.77;52.60
34584;BME280;53696;52.738;4.752;2023-04-27T13:00:43;102052.13;;;17.75;52.66
34584;BME280;53696;52.738;4.752;2023-04-27T13:03:10;102043.16;;;17.78;52.92